sensor_id;sensor_type;location;lat;lon;timestamp;pressure;altitude;pressure_sealevel;temperature;humidity
19023;BME280;35226;48.606;8.858;2023-08-08T00:00:56;96467.50;;;13.80;100.00
19023;BME280;35226;48.606;8.858;2023-08-08T00:03:24;96469.06;;;13.81;100.00
19023;BME280;35226;48.606;8.858;2023-08-08T00:05:49;96472.72;;;13.68;100.00
19023;BME280;35226;48.606;8.858;2023-08-08T00:08:15;96473.78;;;13.71;100.00
19023;BME280;35226;48.606;8.858;2023-08-08T00:10:41;96473.50;;;13.69;100.00
19023;BME280;35226;48.606;8.858;2023-08-08T00:13:06;96467.63;;;13.67;100.00
19023;BME280;35226;48.606;8.858;2023-08-08T00:15:32;96462.84;;;13.67;100.00
19023;BME280;35226;48.606;8.858;2023-08-08T00:17:58;96465.00;;;13.63;100.00
19023;BME280;35226;48.606;8.858;2023-08-08T00:20:23;96467.63;;;13.58;100.00
19023;BME280;35226;48.606;8.858;2023-08-08T00:22:48;96469.47;;;13.61;100.00
19023;BME280;35226;48.606;8.858;2023-08-08T00:25:14;96472.72;;;13.59;100.00
19023;BME280;35226;48.606;8.858;2023-08-08T00:27:40;96475.75;;;13.52;100.00
19023;BME280;35226;48.606;8.858;2023-08-08T00:30:11;96474.38;;;13.48;100.00
19023;BME280;35226;48.606;8.858;2023-08-08T00:32:37;96473.16;;;13.49;100.00
19023;BME280;35226;48.606;8.858;2023-08-08T00:35:04;96475.91;;;13.49;100.00
19023;BME280;35226;48.606;8.858;2023-08-08T00:37:29;96480.50;;;13.43;100.00
19023;BME280;35226;48.606;8.858;2023-08-08T00:39:55;96477.44;;;13.41;100.00
19023;BME280;35226;48.606;8.858;2023-08-08T00:42:20;96476.34;;;13.38;100.00
19023;BME280;35226;48.606;8.858;2023-08-08T00:44:46;96479.56;;;13.37;100.00
19023;BME280;35226;48.606;8.858;2023-08-08T00:47:11;96477.69;;;13.33;100.00
19023;BME280;35226;48.606;8.858;2023-08-08T00:49:37;96473.53;;;13.29;100.00
19023;BME280;35226;48.606;8.858;2023-08-08T00:52:04;96470.31;;;13.30;100.00
19023;BME280;35226;48.606;8.858;2023-08-08T00:54:31;96472.44;;;13.26;100.00
19023;BME280;35226;48.606;8.858;2023-08-08T00:56:56;96469.34;;;13.24;100.00
19023;BME280;35226;48.606;8.858;2023-08-08T00:59:22;96454.69;;;13.24;100.00
19023;BME280;35226;48.606;8.858;2023-08-08T01:01:48;96461.56;;;13.10;100.00
19023;BME280;35226;48.606;8.858;2023-08-08T01:04:16;96457.75;;;13.17;100.00
19023;BME280;35226;48.606;8.858;2023-08-08T01:07:04;96454.47;;;13.09;100.00
19023;BME280;35226;48.606;8.858;2023-08-08T01:09:37;96454.94;;;13.08;100.00
19023;BME280;35226;48.606;8.858;2023-08-08T01:12:06;96452.16;;;13.08;100.00
19023;BME280;35226;48.606;8.858;2023-08-08T01:14:34;96450.13;;;12.99;100.00
19023;BME280;35226;48.606;8.858;2023-08-08T01:17:01;96452.69;;;12.93;100.00
19023;BME280;35226;48.606;8.858;2023-08-08T01:19:29;96454.75;;;13.02;100.00
19023;BME280;35226;48.606;8.858;2023-08-08T01:22:01;96459.22;;;13.00;100.00
19023;BME280;35226;48.606;8.858;2023-08-08T01:24:30;96450.53;;;12.88;100.00
19023;BME280;35226;48.606;8.858;2023-08-08T01:26:59;96449.88;;;12.84;100.00
19023;BME280;35226;48.606;8.858;2023-08-08T01:29:24;96442.94;;;12.80;100.00
19023;BME280;35226;48.606;8.858;2023-08-08T01:31:50;96452.34;;;12.82;100.00
19023;BME280;35226;48.606;8.858;2023-08-08T01:34:15;96449.38;;;12.77;100.00
19023;BME280;35226;48.606;8.858;2023-08-08T01:37:11;96445.66;;;12.71;100.00
19023;BME280;35226;48.606;8.858;2023-08-08T01:39:40;96448.59;;;12.76;100.00
19023;BME280;35226;48.606;8.858;2023-08-08T01:42:06;96448.75;;;12.73;100.00
19023;BME280;35226;48.606;8.858;2023-08-08T01:44:33;96449.06;;;12.75;100.00
19023;BME280;35226;48.606;8.858;2023-08-08T01:47:00;96448.56;;;12.67;100.00
19023;BME280;35226;48.606;8.858;2023-08-08T01:49:28;96441.25;;;12.51;100.00
19023;BME280;35226;48.606;8.858;2023-08-08T01:51:54;96444.84;;;12.61;100.00
19023;BME280;35226;48.606;8.858;2023-08-08T01:54:20;96448.00;;;12.50;100.00
19023;BME280;35226;48.606;8.858;2023-08-08T01:56:46;96445.28;;;12.59;100.00
19023;BME280;35226;48.606;8.858;2023-08-08T01:59:11;96441.09;;;12.55;100.00
19023;BME280;35226;48.606;8.858;2023-08-08T02:01:37;96438.91;;;12.50;100.00
19023;BME280;35226;48.606;8.858;2023-08-08T02:04:03;96436.47;;;12.52;100.00
19023;BME280;35226;48.606;8.858;2023-08-08T02:06:28;96439.38;;;12.48;100.00
19023;BME280;35226;48.606;8.858;2023-08-08T02:08:55;96444.03;;;12.51;100.00
19023;BME280;35226;48.606;8.858;2023-08-08T02:11:20;96443.09;;;12.54;100.00
19023;BME280;35226;48.606;8.858;2023-08-08T02:13:48;96444.97;;;12.57;100.00
19023;BME280;35226;48.606;8.858;2023-08-08T02:16:13;96441.75;;;12.59;100.00
19023;BME280;35226;48.606;8.858;2023-08-08T02:18:39;96438.97;;;12.59;100.00
19023;BME280;35226;48.606;8.858;2023-08-08T02:21:09;96437.44;;;12.58;100.00
19023;BME280;35226;48.606;8.858;2023-08-08T02:23:35;96440.03;;;12.52;100.00
19023;BME280;35226;48.606;8.858;2023-08-08T02:26:01;96440.31;;;12.54;100.00
19023;BME280;35226;48.606;8.858;2023-08-08T02:28:27;96433.09;;;12.57;100.00
19023;BME280;35226;48.606;8.858;2023-08-08T02:30:53;96426.34;;;12.58;100.00
19023;BME280;35226;48.606;8.858;2023-08-08T02:33:18;96435.09;;;12.56;100.00
19023;BME280;35226;48.606;8.858;2023-08-08T02:35:44;96433.09;;;12.57;100.00
19023;BME280;35226;48.606;8.858;2023-08-08T02:38:10;96428.78;;;12.56;100.00
19023;BME280;35226;48.606;8.858;2023-08-08T02:40:38;96427.56;;;12.57;100.00
19023;BME280;35226;48.606;8.858;2023-08-08T02:43:04;96426.34;;;12.58;100.00
19023;BME280;35226;48.606;8.858;2023-08-08T02:45:30;96430.50;;;12.53;100.00
19023;BME280;35226;48.606;8.858;2023-08-08T02:47:55;96432.47;;;12.53;100.00
19023;BME280;35226;48.606;8.858;2023-08-08T02:50:21;96427.84;;;12.50;100.00
19023;BME280;35226;48.606;8.858;2023-08-08T02:52:46;96432.94;;;12.51;100.00
19023;BME280;35226;48.606;8.858;2023-08-08T02:55:12;96433.72;;;12.52;100.00
19023;BME280;35226;48.606;8.858;2023-08-08T02:57:39;96433.38;;;12.50;100.00
19023;BME280;35226;48.606;8.858;2023-08-08T03:00:05;96427.06;;;12.49;100.00
19023;BME280;35226;48.606;8.858;2023-08-08T03:02:36;96435.38;;;12.49;100.00
19023;BME280;35226;48.606;8.858;2023-08-08T03:05:01;96430.59;;;12.50;100.00
19023;BME280;35226;48.606;8.858;2023-08-08T03:07:27;96423.84;;;12.51;100.00
19023;BME280;35226;48.606;8.858;2023-08-08T03:09:53;96430.59;;;12.50;100.00
19023;BME280;35226;48.606;8.858;2023-08-08T03:12:18;96424.16;;;12.53;100.00
19023;BME280;35226;48.606;8.858;2023-08-08T03:14:44;96419.84;;;12.52;100.00
19023;BME280;35226;48.606;8.858;2023-08-08T03:17:11;96418.63;;;12.53;100.00
19023;BME280;35226;48.606;8.858;2023-08-08T03:19:37;96424.09;;;12.44;100.00
19023;BME280;35226;48.606;8.858;2023-08-08T03:22:03;96418.31;;;12.51;100.00
19023;BME280;35226;48.606;8.858;2023-08-08T03:24:28;96414.06;;;12.37;100.00
19023;BME280;35226;48.606;8.858;2023-08-08T03:26:54;96417.53;;;12.50;100.00
19023;BME280;35226;48.606;8.858;2023-08-08T03:29:20;96416.25;;;12.42;100.00
19023;BME280;35226;48.606;8.858;2023-08-08T03:31:48;96417.97;;;12.49;100.00
19023;BME280;35226;48.606;8.858;2023-08-08T03:34:13;96414.88;;;12.47;100.00
19023;BME280;35226;48.606;8.858;2023-08-08T03:36:41;96417.19;;;12.48;100.00
19023;BME280;35226;48.606;8.858;2023-08-08T03:39:07;96418.63;;;12.53;100.00
19023;BME280;35226;48.606;8.858;2023-08-08T03:41:33;96421.25;;;12.56;100.00
19023;BME280;35226;48.606;8.858;2023-08-08T03:43:59;96415.66;;;12.47;100.00
19023;BME280;35226;48.606;8.858;2023-08-08T03:46:26;96422.38;;;12.37;100.00
19023;BME280;35226;48.606;8.858;2023-08-08T03:48:51;96425.50;;;12.48;100.00
19023;BME280;35226;48.606;8.858;2023-08-08T03:51:16;96419.53;;;12.50;100.00
19023;BME280;35226;48.606;8.858;2023-08-08T03:53:42;96425.63;;;12.45;100.00
19023;BME280;35226;48.606;8.858;2023-08-08T03:56:08;96422.41;;;12.46;100.00
19023;BME280;35226;48.606;8.858;2023-08-08T03:58:33;96420.88;;;12.45;100.00
19023;BME280;35226;48.606;8.858;2023-08-08T04:00:59;96423.34;;;12.43;100.00
19023;BME280;35226;48.606;8.858;2023-08-08T04:03:24;96421.31;;;12.44;100.00
19023;BME280;35226;48.606;8.858;2023-08-08T04:05:49;96423.03;;;12.41;100.00
19023;BME280;35226;48.606;8.858;2023-08-08T04:08:15;96429.13;;;12.36;100.00
19023;BME280;35226;48.606;8.858;2023-08-08T04:10:41;96432.03;;;12.33;100.00
19023;BME280;35226;48.606;8.858;2023-08-08T04:13:08;96436.28;;;12.24;100.00
19023;BME280;35226;48.606;8.858;2023-08-08T04:15:35;96429.66;;;12.22;100.00
19023;BME280;35226;48.606;8.858;2023-08-08T04:18:00;96438.41;;;12.20;100.00
19023;BME280;35226;48.606;8.858;2023-08-08T04:20:26;96433.78;;;12.17;100.00
19023;BME280;35226;48.606;8.858;2023-08-08T04:22:51;96432.81;;;12.11;100.00
19023;BME280;35226;48.606;8.858;2023-08-08T04:25:16;96434.38;;;12.12;100.00
19023;BME280;35226;48.606;8.858;2023-08-08T04:27:42;96438.03;;;12.09;100.00
19023;BME280;35226;48.606;8.858;2023-08-08T04:30:08;96439.06;;;12.03;100.00
19023;BME280;35226;48.606;8.858;2023-08-08T04:32:34;96426.59;;;11.85;100.00
19023;BME280;35226;48.606;8.858;2023-08-08T04:34:59;96427.66;;;12.01;100.00
19023;BME280;35226;48.606;8.858;2023-08-08T04:37:24;96422.56;;;11.99;100.00
19023;BME280;35226;48.606;8.858;2023-08-08T04:39:50;96427.06;;;11.84;100.00
19023;BME280;35226;48.606;8.858;2023-08-08T04:42:15;96424.22;;;11.97;100.00
19023;BME280;35226;48.606;8.858;2023-08-08T04:44:41;96425.31;;;11.99;100.00
19023;BME280;35226;48.606;8.858;2023-08-08T04:47:06;96433.31;;;11.97;100.00
19023;BME280;35226;48.606;8.858;2023-08-08T04:49:32;96438.50;;;11.95;100.00
19023;BME280;35226;48.606;8.858;2023-08-08T04:51:57;96437.63;;;11.98;100.00
19023;BME280;35226;48.606;8.858;2023-08-08T04:54:23;96436.66;;;11.92;100.00
19023;BME280;35226;48.606;8.858;2023-08-08T04:56:48;96436.28;;;12.03;100.00
19023;BME280;35226;48.606;8.858;2023-08-08T04:59:14;96432.31;;;12.04;100.00
19023;BME280;35226;48.606;8.858;2023-08-08T05:01:39;96435.25;;;12.09;100.00
19023;BME280;35226;48.606;8.858;2023-08-08T05:04:04;96431.25;;;12.10;100.00
19023;BME280;35226;48.606;8.858;2023-08-08T05:06:30;96447.00;;;12.13;100.00
19023;BME280;35226;48.606;8.858;2023-08-08T05:08:56;96442.66;;;12.12;100.00
19023;BME280;35226;48.606;8.858;2023-08-08T05:11:22;96448.41;;;12.18;100.00
19023;BME280;35226;48.606;8.858;2023-08-08T05:13:47;96443.97;;;12.20;100.00
19023;BME280;35226;48.606;8.858;2023-08-08T05:16:13;96446.78;;;12.30;100.00
19023;BME280;35226;48.606;8.858;2023-08-08T05:18:38;96448.28;;;12.21;100.00
19023;BME280;35226;48.606;8.858;2023-08-08T05:21:04;96442.81;;;12.31;100.00
19023;BME280;35226;48.606;8.858;2023-08-08T05:23:29;96440.22;;;12.36;100.00
19023;BME280;35226;48.606;8.858;2023-08-08T05:25:55;96438.22;;;12.37;100.00
19023;BME280;35226;48.606;8.858;2023-08-08T05:28:20;96435.38;;;12.49;100.00
19023;BME280;35226;48.606;8.858;2023-08-08T05:30:46;96434.16;;;12.50;100.00
19023;BME280;35226;48.606;8.858;2023-08-08T05:33:11;96430.56;;;12.41;100.00
19023;BME280;35226;48.606;8.858;2023-08-08T05:35:37;96427.56;;;12.57;100.00
19023;BME280;35226;48.606;8.858;2023-08-08T05:38:02;96424.50;;;12.64;100.00
19023;BME280;35226;48.606;8.858;2023-08-08T05:40:28;96424.09;;;12.75;100.00
19023;BME280;35226;48.606;8.858;2023-08-08T05:42:54;96423.09;;;12.81;100.00
19023;BME280;35226;48.606;8.858;2023-08-08T05:45:20;96422.66;;;12.92;100.00
19023;BME280;35226;48.606;8.858;2023-08-08T05:47:45;96429.69;;;12.84;100.00
19023;BME280;35226;48.606;8.858;2023-08-08T05:50:11;96420.22;;;13.03;100.00
19023;BME280;35226;48.606;8.858;2023-08-08T05:52:36;96414.53;;;13.07;100.00
19023;BME280;35226;48.606;8.858;2023-08-08T05:55:02;96414.72;;;13.12;100.00
19023;BME280;35226;48.606;8.858;2023-08-08T05:57:27;96420.41;;;13.09;100.00
19023;BME280;35226;48.606;8.858;2023-08-08T05:59:53;96418.19;;;13.25;100.00
19023;BME280;35226;48.606;8.858;2023-08-08T06:02:19;96423.16;;;13.30;100.00
19023;BME280;35226;48.606;8.858;2023-08-08T06:04:44;96427.47;;;13.31;100.00
19023;BME280;35226;48.606;8.858;2023-08-08T06:07:10;96424.41;;;13.39;100.00
19023;BME280;35226;48.606;8.858;2023-08-08T06:09:36;96426.09;;;13.45;100.00
19023;BME280;35226;48.606;8.858;2023-08-08T06:12:03;96424.44;;;13.57;100.00
19023;BME280;35226;48.606;8.858;2023-08-08T06:14:28;96430.44;;;13.64;100.00
19023;BME280;35226;48.606;8.858;2023-08-08T06:16:54;96433.69;;;13.72;100.00
19023;BME280;35226;48.606;8.858;2023-08-08T06:19:19;96432.63;;;13.79;100.00
19023;BME280;35226;48.606;8.858;2023-08-08T06:21:46;96429.88;;;13.88;100.00
19023;BME280;35226;48.606;8.858;2023-08-08T06:24:11;96430.31;;;13.95;100.00
19023;BME280;35226;48.606;8.858;2023-08-08T06:26:37;96434.19;;;14.07;100.00
19023;BME280;35226;48.606;8.858;2023-08-08T06:29:02;96427.72;;;14.19;100.00
19023;BME280;35226;48.606;8.858;2023-08-08T06:31:29;96424.94;;;14.28;100.00
19023;BME280;35226;48.606;8.858;2023-08-08T06:33:55;96429.22;;;14.38;100.00
19023;BME280;35226;48.606;8.858;2023-08-08T06:36:20;96412.09;;;14.49;100.00
19023;BME280;35226;48.606;8.858;2023-08-08T06:38:45;96415.03;;;14.55;100.00
19023;BME280;35226;48.606;8.858;2023-08-08T06:41:11;96418.69;;;14.70;100.00
19023;BME280;35226;48.606;8.858;2023-08-08T06:43:36;96416.78;;;14.85;100.00
19023;BME280;35226;48.606;8.858;2023-08-08T06:46:02;96429.16;;;14.84;100.00
19023;BME280;35226;48.606;8.858;2023-08-08T06:48:27;96416.25;;;15.05;100.00
19023;BME280;35226;48.606;8.858;2023-08-08T06:50:53;96416.06;;;15.17;100.00
19023;BME280;35226;48.606;8.858;2023-08-08T06:53:19;96407.59;;;15.36;100.00
19023;BME280;35226;48.606;8.858;2023-08-08T06:55:44;96412.19;;;15.39;100.00
19023;BME280;35226;48.606;8.858;2023-08-08T06:58:10;96414.28;;;15.62;100.00
19023;BME280;35226;48.606;8.858;2023-08-08T07:00:36;96412.19;;;15.72;100.00
19023;BME280;35226;48.606;8.858;2023-08-08T07:03:01;96407.56;;;15.93;100.00
19023;BME280;35226;48.606;8.858;2023-08-08T07:05:27;96406.09;;;15.82;100.00
19023;BME280;35226;48.606;8.858;2023-08-08T07:07:52;96414.19;;;15.95;100.00
19023;BME280;35226;48.606;8.858;2023-08-08T07:10:19;96409.97;;;16.00;100.00
19023;BME280;35226;48.606;8.858;2023-08-08T07:12:45;96407.13;;;16.09;100.00
19023;BME280;35226;48.606;8.858;2023-08-08T07:15:11;96407.22;;;16.14;100.00
19023;BME280;35226;48.606;8.858;2023-08-08T07:17:37;96403.59;;;16.23;100.00
19023;BME280;35226;48.606;8.858;2023-08-08T07:20:03;96407.06;;;16.33;100.00
19023;BME280;35226;48.606;8.858;2023-08-08T07:22:30;96407.28;;;16.44;100.00
19023;BME280;35226;48.606;8.858;2023-08-08T07:24:57;96408.59;;;16.48;100.00
19023;BME280;35226;48.606;8.858;2023-08-08T07:27:23;96409.09;;;16.47;100.00
19023;BME280;35226;48.606;8.858;2023-08-08T07:29:48;96404.28;;;16.47;100.00
19023;BME280;35226;48.606;8.858;2023-08-08T07:32:14;96407.97;;;16.53;100.00
19023;BME280;35226;48.606;8.858;2023-08-08T07:34:39;96410.06;;;16.58;100.00
19023;BME280;35226;48.606;8.858;2023-08-08T07:37:05;96400.84;;;16.67;100.00
19023;BME280;35226;48.606;8.858;2023-08-08T07:39:30;96397.28;;;16.67;100.00
19023;BME280;35226;48.606;8.858;2023-08-08T07:41:56;96405.38;;;16.79;100.00
19023;BME280;35226;48.606;8.858;2023-08-08T07:44:22;96404.50;;;16.88;100.00
19023;BME280;35226;48.606;8.858;2023-08-08T07:46:48;96401.53;;;16.91;100.00
19023;BME280;35226;48.606;8.858;2023-08-08T07:49:14;96394.09;;;17.03;100.00
19023;BME280;35226;48.606;8.858;2023-08-08T07:51:39;96405.03;;;17.21;100.00
19023;BME280;35226;48.606;8.858;2023-08-08T07:54:05;96398.38;;;17.19;100.00
19023;BME280;35226;48.606;8.858;2023-08-08T07:56:36;96401.25;;;17.24;100.00
19023;BME280;35226;48.606;8.858;2023-08-08T07:59:02;96394.38;;;17.40;100.00
19023;BME280;35226;48.606;8.858;2023-08-08T08:01:29;96390.47;;;17.32;100.00
19023;BME280;35226;48.606;8.858;2023-08-08T08:03:54;96391.31;;;17.38;100.00
19023;BME280;35226;48.606;8.858;2023-08-08T08:06:20;96398.50;;;17.45;100.00
19023;BME280;35226;48.606;8.858;2023-08-08T08:08:46;96395.38;;;17.57;100.00
19023;BME280;35226;48.606;8.858;2023-08-08T08:11:11;96393.66;;;17.60;100.00
19023;BME280;35226;48.606;8.858;2023-08-08T08:13:39;96393.25;;;17.67;100.00
19023;BME280;35226;48.606;8.858;2023-08-08T08:16:04;96391.34;;;17.58;100.00
19023;BME280;35226;48.606;8.858;2023-08-08T08:18:29;96395.72;;;17.80;100.00
19023;BME280;35226;48.606;8.858;2023-08-08T08:20:55;96397.03;;;17.84;100.00
19023;BME280;35226;48.606;8.858;2023-08-08T08:23:21;96403.31;;;17.79;100.00
19023;BME280;35226;48.606;8.858;2023-08-08T08:25:46;96403.03;;;17.97;100.00
19023;BME280;35226;48.606;8.858;2023-08-08T08:28:14;96392.19;;;18.05;100.00
19023;BME280;35226;48.606;8.858;2023-08-08T08:30:40;96402.72;;;18.16;100.00
19023;BME280;35226;48.606;8.858;2023-08-08T08:33:05;96406.50;;;18.12;100.00
19023;BME280;35226;48.606;8.858;2023-08-08T08:35:34;96398.13;;;18.12;100.00
19023;BME280;35226;48.606;8.858;2023-08-08T08:37:59;96399.72;;;18.19;100.00
19023;BME280;35226;48.606;8.858;2023-08-08T08:40:25;96396.97;;;18.25;100.00
19023;BME280;35226;48.606;8.858;2023-08-08T08:42:51;96385.75;;;18.19;100.00
19023;BME280;35226;48.606;8.858;2023-08-08T08:45:19;96386.56;;;18.25;100.00
19023;BME280;35226;48.606;8.858;2023-08-08T08:47:46;96385.63;;;18.34;100.00
19023;BME280;35226;48.606;8.858;2023-08-08T08:50:17;96390.34;;;18.22;100.00
19023;BME280;35226;48.606;8.858;2023-08-08T08:52:43;96388.13;;;18.06;100.00
19023;BME280;35226;48.606;8.858;2023-08-08T08:55:09;96387.63;;;18.28;100.00
19023;BME280;35226;48.606;8.858;2023-08-08T08:57:35;96383.34;;;18.32;100.00
19023;BME280;35226;48.606;8.858;2023-08-08T09:00:02;96383.44;;;18.43;100.00
19023;BME280;35226;48.606;8.858;2023-08-08T09:02:34;96389.78;;;18.64;100.00
19023;BME280;35226;48.606;8.858;2023-08-08T09:05:00;96383.53;;;18.75;100.00
19023;BME280;35226;48.606;8.858;2023-08-08T09:07:27;96382.44;;;18.67;100.00
19023;BME280;35226;48.606;8.858;2023-08-08T09:09:55;96385.28;;;18.72;100.00
19023;BME280;35226;48.606;8.858;2023-08-08T09:12:21;96375.78;;;18.64;100.00
19023;BME280;35226;48.606;8.858;2023-08-08T09:14:46;96377.47;;;18.56;100.00
19023;BME280;35226;48.606;8.858;2023-08-08T09:17:14;96375.78;;;18.64;100.00
19023;BME280;35226;48.606;8.858;2023-08-08T09:19:44;96374.13;;;18.78;99.49
19023;BME280;35226;48.606;8.858;2023-08-08T09:22:10;96374.72;;;18.88;98.25
19023;BME280;35226;48.606;8.858;2023-08-08T09:24:41;96380.16;;;19.02;100.00
19023;BME280;35226;48.606;8.858;2023-08-08T09:27:07;96378.72;;;19.12;100.00
19023;BME280;35226;48.606;8.858;2023-08-08T09:29:33;96373.00;;;18.96;95.92
19023;BME280;35226;48.606;8.858;2023-08-08T09:31:58;96366.94;;;19.03;96.55
19023;BME280;35226;48.606;8.858;2023-08-08T09:34:25;96367.91;;;18.94;85.86
19023;BME280;35226;48.606;8.858;2023-08-08T09:36:52;96374.47;;;19.22;91.28
19023;BME280;35226;48.606;8.858;2023-08-08T09:39:18;96366.34;;;19.30;96.80
19023;BME280;35226;48.606;8.858;2023-08-08T09:41:45;96367.56;;;19.61;97.67
19023;BME280;35226;48.606;8.858;2023-08-08T09:44:11;96363.03;;;19.69;94.12
19023;BME280;35226;48.606;8.858;2023-08-08T09:46:37;96351.81;;;19.63;95.51
19023;BME280;35226;48.606;8.858;2023-08-08T09:49:05;96348.00;;;19.66;92.44
19023;BME280;35226;48.606;8.858;2023-08-08T09:51:30;96364.25;;;19.56;87.19
19023;BME280;35226;48.606;8.858;2023-08-08T09:53:56;96341.84;;;19.62;74.50
19023;BME280;35226;48.606;8.858;2023-08-08T09:56:23;96348.34;;;19.85;76.74
19023;BME280;35226;48.606;8.858;2023-08-08T09:58:49;96346.63;;;20.04;79.12
19023;BME280;35226;48.606;8.858;2023-08-08T10:01:16;96350.72;;;20.14;78.00
19023;BME280;35226;48.606;8.858;2023-08-08T10:03:42;96341.81;;;20.21;71.68
19023;BME280;35226;48.606;8.858;2023-08-08T10:06:10;96334.47;;;20.35;74.39
19023;BME280;35226;48.606;8.858;2023-08-08T10:08:35;96341.13;;;20.43;71.38
19023;BME280;35226;48.606;8.858;2023-08-08T10:11:01;96333.47;;;20.49;66.39
19023;BME280;35226;48.606;8.858;2023-08-08T10:13:27;96336.00;;;20.42;64.96
19023;BME280;35226;48.606;8.858;2023-08-08T10:15:54;96344.63;;;20.21;66.07
19023;BME280;35226;48.606;8.858;2023-08-08T10:18:24;96344.34;;;20.14;63.88
19023;BME280;35226;48.606;8.858;2023-08-08T10:20:50;96338.75;;;20.30;62.74
19023;BME280;35226;48.606;8.858;2023-08-08T10:23:19;96342.91;;;20.57;60.90
19023;BME280;35226;48.606;8.858;2023-08-08T10:25:46;96337.28;;;20.57;61.63
19023;BME280;35226;48.606;8.858;2023-08-08T10:28:13;96336.03;;;20.64;63.69
19023;BME280;35226;48.606;8.858;2023-08-08T10:33:41;96337.56;;;20.93;60.22
19023;BME280;35226;48.606;8.858;2023-08-08T10:36:08;96347.75;;;21.13;58.00
19023;BME280;35226;48.606;8.858;2023-08-08T10:38:52;96335.47;;;21.38;57.38
19023;BME280;35226;48.606;8.858;2023-08-08T10:41:21;96347.25;;;21.14;54.38
19023;BME280;35226;48.606;8.858;2023-08-08T10:46:23;96334.41;;;21.47;54.84
19023;BME280;35226;48.606;8.858;2023-08-08T10:48:54;96338.06;;;21.30;53.71
19023;BME280;35226;48.606;8.858;2023-08-08T10:54:52;96347.03;;;20.95;58.95
19023;BME280;35226;48.606;8.858;2023-08-08T10:57:18;96344.44;;;21.03;59.25
19023;BME280;35226;48.606;8.858;2023-08-08T10:59:44;96338.31;;;21.27;55.68
19023;BME280;35226;48.606;8.858;2023-08-08T11:02:10;96340.28;;;21.60;53.70
19023;BME280;35226;48.606;8.858;2023-08-08T11:04:35;96332.59;;;21.60;49.72
19023;BME280;35226;48.606;8.858;2023-08-08T11:07:01;96330.16;;;22.03;49.75
19023;BME280;35226;48.606;8.858;2023-08-08T11:09:27;96335.19;;;22.22;49.87
19023;BME280;35226;48.606;8.858;2023-08-08T11:11:53;96324.53;;;22.44;48.66
19023;BME280;35226;48.606;8.858;2023-08-08T11:14:20;96327.19;;;22.67;48.52
19023;BME280;35226;48.606;8.858;2023-08-08T11:16:48;96320.47;;;22.40;47.25
19023;BME280;35226;48.606;8.858;2023-08-08T11:19:14;96335.13;;;22.27;49.17
19023;BME280;35226;48.606;8.858;2023-08-08T11:21:43;96327.06;;;22.48;47.74
19023;BME280;35226;48.606;8.858;2023-08-08T11:24:10;96323.22;;;22.51;46.61
19023;BME280;35226;48.606;8.858;2023-08-08T11:26:37;96326.94;;;22.24;46.63
19023;BME280;35226;48.606;8.858;2023-08-08T11:29:04;96319.72;;;22.34;48.96
19023;BME280;35226;48.606;8.858;2023-08-08T11:31:31;96323.25;;;22.45;46.04
19023;BME280;35226;48.606;8.858;2023-08-08T11:33:59;96324.63;;;22.69;45.50
19023;BME280;35226;48.606;8.858;2023-08-08T11:36:26;96337.09;;;22.79;46.32
19023;BME280;35226;48.606;8.858;2023-08-08T11:38:54;96325.34;;;23.05;46.55
19023;BME280;35226;48.606;8.858;2023-08-08T11:41:22;96324.41;;;22.97;43.12
19023;BME280;35226;48.606;8.858;2023-08-08T11:43:48;96324.50;;;23.40;43.15
19023;BME280;35226;48.606;8.858;2023-08-08T11:46:14;96327.06;;;23.86;44.14
19023;BME280;35226;48.606;8.858;2023-08-08T11:48:41;96323.66;;;23.93;42.25
19023;BME280;35226;48.606;8.858;2023-08-08T11:51:07;96312.00;;;24.40;40.87
19023;BME280;35226;48.606;8.858;2023-08-08T11:53:34;96314.09;;;24.71;42.63
19023;BME280;35226;48.606;8.858;2023-08-08T11:56:01;96310.84;;;24.81;41.16
19023;BME280;35226;48.606;8.858;2023-08-08T11:58:31;96307.44;;;24.69;40.66
19023;BME280;35226;48.606;8.858;2023-08-08T12:00:57;96308.97;;;25.02;41.36
19023;BME280;35226;48.606;8.858;2023-08-08T12:03:24;96304.66;;;25.14;39.47
19023;BME280;35226;48.606;8.858;2023-08-08T12:05:51;96303.59;;;24.85;38.11
19023;BME280;35226;48.606;8.858;2023-08-08T12:08:19;96308.84;;;24.94;37.75
19023;BME280;35226;48.606;8.858;2023-08-08T12:10:49;96308.34;;;24.26;38.26
19023;BME280;35226;48.606;8.858;2023-08-08T12:13:20;96320.59;;;23.91;40.16
19023;BME280;35226;48.606;8.858;2023-08-08T12:15:47;96308.22;;;23.76;41.19
19023;BME280;35226;48.606;8.858;2023-08-08T12:18:16;96304.16;;;23.71;41.53
19023;BME280;35226;48.606;8.858;2023-08-08T12:20:42;96306.47;;;23.91;42.20
19023;BME280;35226;48.606;8.858;2023-08-08T12:23:08;96306.28;;;24.08;42.08
19023;BME280;35226;48.606;8.858;2023-08-08T12:25:33;96291.66;;;24.28;41.54
19023;BME280;35226;48.606;8.858;2023-08-08T12:27:59;96293.22;;;24.75;41.22
19023;BME280;35226;48.606;8.858;2023-08-08T12:30:24;96281.28;;;24.82;39.68
19023;BME280;35226;48.606;8.858;2023-08-08T12:32:50;96285.28;;;25.18;39.31
19023;BME280;35226;48.606;8.858;2023-08-08T12:35:15;96291.19;;;25.33;39.95
19023;BME280;35226;48.606;8.858;2023-08-08T12:37:42;96286.59;;;25.17;39.79
19023;BME280;35226;48.606;8.858;2023-08-08T12:40:08;96289.94;;;24.57;39.88
19023;BME280;35226;48.606;8.858;2023-08-08T12:42:33;96293.13;;;23.92;40.92
19023;BME280;35226;48.606;8.858;2023-08-08T12:44:59;96297.78;;;23.46;42.17
19023;BME280;35226;48.606;8.858;2023-08-08T12:47:24;96302.03;;;23.04;43.14
19023;BME280;35226;48.606;8.858;2023-08-08T12:49:50;96306.50;;;22.94;43.46
19023;BME280;35226;48.606;8.858;2023-08-08T12:52:15;96299.63;;;22.54;42.43
19023;BME280;35226;48.606;8.858;2023-08-08T12:54:41;96296.03;;;22.53;43.15
19023;BME280;35226;48.606;8.858;2023-08-08T12:57:06;96286.63;;;23.11;44.76